Time;durP1;ratioP1;P1;durP2;ratioP2;P2;SDS_P1;SDS_P2;PMS_P1;PMS_P2;Temp;Humidity;BMP_temperature;BMP_pressure;BME280_temperature;BME280_humidity;BME280_pressure;Samples;Min_cycle;Max_cycle;Signal;HPM_P1;HPM_P2
2024/04/17 00:01:53;;;;;;;3.28;1.80;;;;;;;;;;6266092;22;20075;-82
2024/04/17 00:04:20;;;;;;;;;;;;;;;;;;6230032;23;20009;-82
2024/04/17 00:06:54;;;;;;;2.28;1.45;;;;;;;;;;6228925;23;19925;-82
2024/04/17 00:09:28;;;;;;;;;;;;;;;;;;6237260;22;20389;-82
2024/04/17 00:12:08;;;;;;;2.05;1.40;;;;;;;;;;6323727;22;19996;-84
2024/04/17 00:14:36;;;;;;;1.77;1.40;;;;;;;;;;6322263;22;20008;-82
2024/04/17 00:17:10;;;;;;;4.70;1.80;;;;;;;;;;6325339;22;20078;-82
2024/04/17 00:19:38;;;;;;;6.28;1.75;;;;;;;;;;6325104;22;20004;-82
2024/04/17 00:22:05;;;;;;;3.72;1.48;;;;;;;;;;6324421;22;20007;-83
2024/04/17 00:24:40;;;;;;;2.05;1.40;;;;;;;;;;6324061;22;20040;-83
2024/04/17 00:27:08;;;;;;;3.20;1.50;;;;;;;;;;6324598;22;20003;-82
2024/04/17 00:29:35;;;;;;;2.60;1.75;;;;;;;;;;6323949;22;20012;-82
2024/04/17 00:32:09;;;;;;;2.50;1.67;;;;;;;;;;6323341;22;20374;-83
2024/04/17 00:34:36;;;;;;;2.63;1.65;;;;;;;;;;6324699;22;20517;-82
2024/04/17 00:37:04;;;;;;;4.20;1.65;;;;;;;;;;6322213;22;19999;-82
2024/04/17 00:39:38;;;;;;;2.58;1.80;;;;;;;;;;6325179;22;20004;-84
2024/04/17 00:42:11;;;;;;;6.07;1.90;;;;;;;;;;6323019;22;19996;-84
2024/04/17 00:44:45;;;;;;;3.45;1.60;;;;;;;;;;6324478;22;20032;-84
2024/04/17 00:47:12;;;;;;;2.65;1.85;;;;;;;;;;6323108;22;20334;-84
2024/04/17 00:49:40;;;;;;;7.80;1.70;;;;;;;;;;6323065;22;20020;-85
2024/04/17 00:52:21;;;;;;;5.18;2.00;;;;;;;;;;6325792;22;20032;-83
2024/04/17 00:54:48;;;;;;;9.77;1.95;;;;;;;;;;6324451;22;20008;-83
2024/04/17 00:57:22;;;;;;;8.02;2.00;;;;;;;;;;6324665;22;20000;-81
2024/04/17 00:59:49;;;;;;;4.90;1.85;;;;;;;;;;6323800;22;20325;-82
2024/04/17 01:02:16;;;;;;;8.77;1.77;;;;;;;;;;6323496;22;20072;-82
2024/04/17 01:04:51;;;;;;;2.72;1.83;;;;;;;;;;6323974;22;20004;-83
2024/04/17 01:07:18;;;;;;;;;;;;;;;;;;6324171;22;20075;-82
2024/04/17 01:09:46;;;;;;;4.00;1.63;;;;;;;;;;6273678;22;19931;-83
2024/04/17 01:12:26;;;;;;;2.97;1.55;;;;;;;;;;6276320;22;20038;-82
2024/04/17 01:14:54;;;;;;;7.38;1.60;;;;;;;;;;6314199;22;20009;-82
2024/04/17 01:17:28;;;;;;;2.45;1.42;;;;;;;;;;6312946;22;20531;-83
2024/04/17 01:19:56;;;;;;;;;;;;;;;;;;6314809;22;20016;-82
2024/04/17 01:22:23;;;;;;;4.85;1.60;;;;;;;;;;6275059;22;20394;-83
2024/04/17 01:24:57;;;;;;;1.92;1.42;;;;;;;;;;6275526;22;20004;-82
2024/04/17 01:27:24;;;;;;;;;;;;;;;;;;6315609;22;20008;-82
2024/04/17 01:29:58;;;;;;;2.83;1.67;;;;;;;;;;6274967;22;20179;-82
2024/04/17 01:32:25;;;;;;;;;;;;;;;;;;6278369;22;20012;-83
2024/04/17 01:34:53;;;;;;;2.47;1.50;;;;;;;;;;6277625;22;20104;-83
2024/04/17 01:37:27;;;;;;;3.08;1.55;;;;;;;;;;6314698;22;20012;-83
2024/04/17 01:39:54;;;;;;;3.35;1.42;;;;;;;;;;6279170;22;20004;-83
2024/04/17 01:42:28;;;;;;;2.17;1.65;;;;;;;;;;6280680;22;20040;-83
2024/04/17 01:45:02;;;;;;;5.18;1.95;;;;;;;;;;6279227;22;20666;-82
2024/04/17 01:47:29;;;;;;;2.42;1.80;;;;;;;;;;6277770;22;20012;-82
2024/04/17 01:49:57;;;;;;;4.53;2.05;;;;;;;;;;6315377;22;20001;-82
2024/04/17 01:52:37;;;;;;;7.07;2.13;;;;;;;;;;6314030;22;20000;-83
2024/04/17 01:55:06;;;;;;;6.03;2.75;;;;;;;;;;6277058;22;20004;-83
2024/04/17 01:57:40;;;;;;;6.30;1.90;;;;;;;;;;6278246;22;20012;-83
2024/04/17 02:00:08;;;;;;;4.72;2.10;;;;;;;;;;6277625;22;20017;-82
2024/04/17 02:02:35;;;;;;;3.35;1.95;;;;;;;;;;6315504;22;20423;-83
2024/04/17 02:05:09;;;;;;;2.88;1.70;;;;;;;;;;6277086;22;20020;-82
2024/04/17 02:07:36;;;;;;;;;;;;;;;;;;6276949;22;20005;-83
2024/04/17 02:10:17;;;;;;;2.95;1.83;;;;;;;;;;6274859;22;19960;-82
2024/04/17 02:12:50;;;;;;;5.65;1.80;;;;;;;;;;6314513;22;20000;-82
2024/04/17 02:15:24;;;;;;;3.53;2.35;;;;;;;;;;6313769;22;20012;-82
2024/04/17 02:17:58;;;;;;;11.93;2.13;;;;;;;;;;6313056;22;20076;-82
2024/04/17 02:20:32;;;;;;;2.88;1.90;;;;;;;;;;6276899;22;20004;-82
2024/04/17 02:23:06;;;;;;;2.63;1.85;;;;;;;;;;6276947;22;20736;-82
2024/04/17 02:25:40;;;;;;;8.48;2.33;;;;;;;;;;6313419;22;20001;-82
2024/04/17 02:28:07;;;;;;;6.00;2.10;;;;;;;;;;6314430;22;20016;-82
2024/04/17 02:30:35;;;;;;;;;;;;;;;;;;6278614;22;20016;-83
2024/04/17 02:33:09;;;;;;;2.63;1.73;;;;;;;;;;6277284;22;19924;-82
2024/04/17 02:35:36;;;;;;;;;;;;;;;;;;6278269;22;20020;-83
2024/04/17 02:38:10;;;;;;;5.47;1.95;;;;;;;;;;6275301;22;19970;-83
2024/04/17 02:40:37;;;;;;;2.95;2.08;;;;;;;;;;6276577;22;20062;-83
2024/04/17 02:43:05;;;;;;;3.28;1.80;;;;;;;;;;6276179;22;20011;-82
2024/04/17 02:45:40;;;;;;;1.95;1.70;;;;;;;;;;6314749;22;20077;-83
2024/04/17 02:48:07;;;;;;;5.15;1.60;;;;;;;;;;6277514;22;20084;-83
2024/04/17 02:50:42;;;;;;;6.03;2.10;;;;;;;;;;6314483;22;20004;-82
2024/04/17 02:53:16;;;;;;;4.88;2.00;;;;;;;;;;6316951;22;20012;-83
2024/04/17 02:55:50;;;;;;;5.45;2.00;;;;;;;;;;6278964;22;20000;-83
2024/04/17 02:58:17;;;;;;;;;;;;;;;;;;6279189;22;20056;-83
2024/04/17 03:00:45;;;;;;;3.47;1.63;;;;;;;;;;6279728;22;19931;-83
2024/04/17 03:03:19;;;;;;;2.72;1.85;;;;;;;;;;6277748;22;20001;-84
2024/04/17 03:05:46;;;;;;;;;;;;;;;;;;6278630;22;20465;-83
2024/04/17 03:08:14;;;;;;;2.00;1.50;;;;;;;;;;6275977;22;19997;-82
2024/04/17 03:10:55;;;;;;;2.55;1.27;;;;;;;;;;6302563;22;20036;-83
2024/04/17 03:13:22;;;;;;;3.75;1.90;;;;;;;;;;6324883;22;20007;-83
2024/04/17 03:16:00;;;;;;;4.53;1.80;;;;;;;;;;6324454;22;20318;-83
2024/04/17 03:18:28;;;;;;;2.63;1.55;;;;;;;;;;6323795;22;19995;-83
2024/04/17 03:21:05;;;;;;;2.13;1.65;;;;;;;;;;6325408;22;20028;-83
2024/04/17 03:23:39;;;;;;;2.60;1.60;;;;;;;;;;6325648;22;20075;-83
2024/04/17 03:26:06;;;;;;;;;;;;;;;;;;6324879;22;20019;-82
2024/04/17 03:28:40;;;;;;;3.80;1.58;;;;;;;;;;6324548;22;19924;-82
2024/04/17 03:31:07;;;;;;;4.38;1.52;;;;;;;;;;6323848;22;20015;-82
2024/04/17 03:33:35;;;;;;;3.88;1.63;;;;;;;;;;6323172;22;20683;-83
2024/04/17 03:36:09;;;;;;;7.13;2.33;;;;;;;;;;6325943;22;20083;-82
2024/04/17 03:38:36;;;;;;;;;;;;;;;;;;6323947;22;20000;-83
2024/04/17 03:41:04;;;;;;;2.17;1.58;;;;;;;;;;6283500;22;20059;-83
2024/04/17 03:43:38;;;;;;;2.28;1.70;;;;;;;;;;6324634;22;20346;-83
2024/04/17 03:46:05;;;;;;;4.70;2.00;;;;;;;;;;6324882;22;20004;-83
2024/04/17 03:48:32;;;;;;;11.85;1.98;;;;;;;;;;6325576;22;20000;-83
2024/04/17 03:51:06;;;;;;;2.13;1.73;;;;;;;;;;6325315;22;20004;-82
2024/04/17 03:53:49;;;;;;;3.03;1.90;;;;;;;;;;6325152;22;20040;-83
2024/04/17 03:56:16;;;;;;;2.58;1.52;;;;;;;;;;6322646;22;20003;-83
2024/04/17 03:58:50;;;;;;;3.00;1.70;;;;;;;;;;6324611;22;20505;-83
2024/04/17 04:01:17;;;;;;;;;;;;;;;;;;6325051;22;20018;-83
2024/04/17 04:03:45;;;;;;;3.13;1.83;;;;;;;;;;6284875;22;19973;-83
2024/04/17 04:06:19;;;;;;;6.25;1.80;;;;;;;;;;6326105;22;20498;-82
2024/04/17 04:08:46;;;;;;;2.40;1.80;;;;;;;;;;6325340;22;20454;-82
2024/04/17 04:11:14;;;;;;;2.28;2.00;;;;;;;;;;6323533;22;20521;-83
2024/04/17 04:13:50;;;;;;;2.45;1.85;;;;;;;;;;6324512;22;20032;-83
2024/04/17 04:16:17;;;;;;;3.58;1.60;;;;;;;;;;6323945;22;20011;-83
2024/04/17 04:18:45;;;;;;;3.72;1.90;;;;;;;;;;6324105;22;19998;-83
2024/04/17 04:21:19;;;;;;;5.00;1.70;;;;;;;;;;6325457;22;20427;-82
2024/04/17 04:23:49;;;;;;;3.72;1.70;;;;;;;;;;6324437;22;20079;-83
2024/04/17 04:26:23;;;;;;;5.75;2.30;;;;;;;;;;6323809;22;20008;-82
2024/04/17 04:28:50;;;;;;;2.50;1.73;;;;;;;;;;6324448;22;20717;-83
2024/04/17 04:31:18;;;;;;;4.88;2.00;;;;;;;;;;6322050;22;20003;-82
2024/04/17 04:33:52;;;;;;;4.18;1.88;;;;;;;;;;6322393;22;20084;-83
2024/04/17 04:36:19;;;;;;;5.53;1.92;;;;;;;;;;6323973;22;20084;-83
2024/04/17 04:38:53;;;;;;;2.78;1.65;;;;;;;;;;6323003;22;20004;-82
2024/04/17 04:41:20;;;;;;;5.85;1.90;;;;;;;;;;6320404;22;20324;-83
2024/04/17 04:43:48;;;;;;;3.40;1.50;;;;;;;;;;6322746;22;20014;-83
2024/04/17 04:46:22;;;;;;;3.67;1.85;;;;;;;;;;6323520;22;20015;-83
2024/04/17 04:48:50;;;;;;;9.10;1.52;;;;;;;;;;6323974;22;20035;-82
2024/04/17 04:51:17;;;;;;;2.72;1.77;;;;;;;;;;6323025;22;20018;-82
2024/04/17 04:53:57;;;;;;;5.45;1.60;;;;;;;;;;6324094;22;20079;-83
2024/04/17 04:56:25;;;;;;;3.38;1.63;;;;;;;;;;6322192;22;20024;-83
2024/04/17 04:58:59;;;;;;;2.55;1.40;;;;;;;;;;6321152;22;20298;-83
2024/04/17 05:01:27;;;;;;;2.35;1.73;;;;;;;;;;6320224;22;20006;-83
2024/04/17 05:03:54;;;;;;;3.33;1.65;;;;;;;;;;6322700;22;20015;-83
2024/04/17 05:06:28;;;;;;;2.70;1.67;;;;;;;;;;6324514;22;20729;-82
2024/04/17 05:08:55;;;;;;;3.13;1.42;;;;;;;;;;6323791;22;20503;-83
2024/04/17 05:11:36;;;;;;;2.65;1.48;;;;;;;;;;6321578;22;20011;-82
2024/04/17 05:14:09;;;;;;;4.50;1.58;;;;;;;;;;6321222;22;20283;-83
2024/04/17 05:16:43;;;;;;;2.00;1.75;;;;;;;;;;6323855;22;19996;-83
2024/04/17 05:19:17;;;;;;;5.50;1.90;;;;;;;;;;6322883;22;20032;-82
2024/04/17 05:21:51;;;;;;;3.22;1.65;;;;;;;;;;6321544;22;20000;-82
2024/04/17 05:24:25;;;;;;;4.63;2.10;;;;;;;;;;6324458;22;20315;-82
2024/04/17 05:26:55;;;;;;;2.80;1.95;;;;;;;;;;6324008;22;20014;-82
2024/04/17 05:29:22;;;;;;;5.10;1.80;;;;;;;;;;6323384;22;20065;-83
2024/04/17 05:31:56;;;;;;;3.60;1.90;;;;;;;;;;6323022;22;20503;-82
2024/04/17 05:34:23;;;;;;;6.88;2.10;;;;;;;;;;6323274;22;20015;-82
2024/04/17 05:36:57;;;;;;;3.45;1.60;;;;;;;;;;6323841;22;20011;-83
2024/04/17 05:39:26;;;;;;;6.57;2.10;;;;;;;;;;6324383;22;20060;-83
2024/04/17 05:41:53;;;;;;;2.05;1.80;;;;;;;;;;6323896;22;20048;-82
2024/04/17 05:44:28;;;;;;;3.85;2.25;;;;;;;;;;6323020;22;20012;-82
2024/04/17 05:46:55;;;;;;;5.47;2.35;;;;;;;;;;6321024;22;20024;-83
2024/04/17 05:49:22;;;;;;;3.42;1.98;;;;;;;;;;6324427;22;20004;-83
2024/04/17 05:51:56;;;;;;;2.38;1.75;;;;;;;;;;6321786;22;20015;-82
2024/04/17 05:54:37;;;;;;;5.20;1.80;;;;;;;;;;6324845;22;20486;-83
2024/04/17 05:57:11;;;;;;;2.35;1.85;;;;;;;;;;6325698;22;20012;-83
2024/04/17 05:59:38;;;;;;;3.83;1.83;;;;;;;;;;6326831;22;20081;-82
2024/04/17 06:02:06;;;;;;;7.18;1.90;;;;;;;;;;6325639;22;20414;-82
2024/04/17 06:04:40;;;;;;;4.22;2.15;;;;;;;;;;6325132;22;20004;-83
2024/04/17 06:07:07;;;;;;;2.90;1.70;;;;;;;;;;6325264;22;20000;-83
2024/04/17 06:09:35;;;;;;;3.40;2.15;;;;;;;;;;6323144;22;20007;-82
2024/04/17 06:12:16;;;;;;;4.63;2.00;;;;;;;;;;6321820;22;20049;-82
2024/04/17 06:14:43;;;;;;;2.47;1.83;;;;;;;;;;6321218;22;20003;-82
2024/04/17 06:17:17;;;;;;;4.10;2.05;;;;;;;;;;6323088;22;20004;-82
2024/04/17 06:19:44;;;;;;;1.75;1.48;;;;;;;;;;6323567;22;20004;-82
2024/04/17 06:22:12;;;;;;;4.93;1.77;;;;;;;;;;6323172;22;20011;-82
2024/04/17 06:24:46;;;;;;;3.65;1.55;;;;;;;;;;6323236;22;20016;-83
2024/04/17 06:27:13;;;;;;;1.65;1.38;;;;;;;;;;6322754;22;20434;-83
2024/04/17 06:29:47;;;;;;;2.15;1.67;;;;;;;;;;6325456;22;20093;-82
2024/04/17 06:32:15;;;;;;;3.65;2.00;;;;;;;;;;6325016;22;20056;-83
2024/04/17 06:34:42;;;;;;;2.50;2.10;;;;;;;;;;6323600;22;20008;-83
2024/04/17 06:37:16;;;;;;;2.13;1.70;;;;;;;;;;6324201;22;20310;-83
2024/04/17 06:39:44;;;;;;;3.92;1.73;;;;;;;;;;6324756;22;20026;-83
2024/04/17 06:42:11;;;;;;;2.83;1.70;;;;;;;;;;6325284;22;20015;-82
2024/04/17 06:44:45;;;;;;;2.22;1.75;;;;;;;;;;6322425;22;20015;-83
2024/04/17 06:47:12;;;;;;;3.97;1.77;;;;;;;;;;6324847;22;20003;-83
2024/04/17 06:49:49;;;;;;;2.85;1.92;;;;;;;;;;6324982;22;20004;-82
2024/04/17 06:52:16;;;;;;;3.15;2.08;;;;;;;;;;6323492;22;20352;-82
2024/04/17 06:54:44;;;;;;;;;;;;;;;;;;6325541;22;20017;-83
2024/04/17 06:57:25;;;;;;;2.65;1.60;;;;;;;;;;6325521;22;20621;-82
2024/04/17 06:59:52;;;;;;;2.15;1.60;;;;;;;;;;6324298;22;20000;-82
2024/04/17 07:02:26;;;;;;;4.25;1.98;;;;;;;;;;6323124;22;20004;-82
2024/04/17 07:05:00;;;;;;;2.88;1.70;;;;;;;;;;6324400;22;20020;-82
2024/04/17 07:07:41;;;;;;;3.85;2.30;;;;;;;;;;6325682;22;20000;-82
2024/04/17 07:10:14;;;;;;;2.17;1.90;;;;;;;;;;6320273;22;20000;-83
2024/04/17 07:12:55;;;;;;;3.90;1.60;;;;;;;;;;6326082;22;20485;-82
2024/04/17 07:15:22;;;;;;;2.63;2.10;;;;;;;;;;6324939;22;20019;-81
2024/04/17 07:17:56;;;;;;;2.25;1.58;;;;;;;;;;6329823;22;20075;-83
2024/04/17 07:20:23;;;;;;;2.15;1.50;;;;;;;;;;6329152;22;20014;-83
2024/04/17 07:22:51;;;;;;;1.58;1.40;;;;;;;;;;6326616;22;20687;-83
2024/04/17 07:25:26;;;;;;;2.47;1.40;;;;;;;;;;6326448;22;20445;-82
2024/04/17 07:27:53;;;;;;;2.42;1.33;;;;;;;;;;6326992;22;20450;-82
2024/04/17 07:30:27;;;;;;;2.45;1.15;;;;;;;;;;6326213;22;20012;-82
2024/04/17 07:32:55;;;;;;;2.95;1.17;;;;;;;;;;6323010;22;20398;-82
2024/04/17 07:35:22;;;;;;;1.40;1.10;;;;;;;;;;6324380;22;20073;-83
2024/04/17 07:37:56;;;;;;;3.50;1.17;;;;;;;;;;6324306;22;20008;-82
2024/04/17 07:40:24;;;;;;;2.47;1.00;;;;;;;;;;6325044;22;20040;-82
2024/04/17 07:42:58;;;;;;;2.30;0.88;;;;;;;;;;6324325;22;20441;-82
2024/04/17 07:45:31;;;;;;;1.38;1.20;;;;;;;;;;6323114;22;20079;-83
2024/04/17 07:48:05;;;;;;;3.15;0.70;;;;;;;;;;6325026;22;20000;-83
2024/04/17 07:50:35;;;;;;;1.20;0.80;;;;;;;;;;6323725;22;20004;-83
2024/04/17 07:53:03;;;;;;;3.33;0.63;;;;;;;;;;6323920;22;20011;-83
2024/04/17 07:55:44;;;;;;;2.47;0.90;;;;;;;;;;6323815;22;20083;-82
2024/04/17 07:58:11;;;;;;;0.98;0.70;;;;;;;;;;6324701;22;20080;-83
2024/04/17 08:00:45;;;;;;;5.30;1.05;;;;;;;;;;6323450;22;20003;-83
2024/04/17 08:03:12;;;;;;;1.33;0.60;;;;;;;;;;6322862;22;20011;-82
2024/04/17 08:05:40;;;;;;;1.25;0.77;;;;;;;;;;6323544;22;20017;-84
2024/04/17 08:08:14;;;;;;;3.88;1.15;;;;;;;;;;6320946;22;20164;-83
2024/04/17 08:10:48;;;;;;;3.08;0.80;;;;;;;;;;6321430;22;20016;-83
2024/04/17 08:13:28;;;;;;;2.30;0.55;;;;;;;;;;6323985;22;20314;-83
2024/04/17 08:15:56;;;;;;;1.55;0.90;;;;;;;;;;6323356;22;20360;-83
2024/04/17 08:18:30;;;;;;;2.28;0.93;;;;;;;;;;6322113;22;20012;-83
2024/04/17 08:20:58;;;;;;;0.75;0.70;;;;;;;;;;6323175;22;20088;-82
2024/04/17 08:23:25;;;;;;;1.33;0.90;;;;;;;;;;6322821;22;20016;-83
2024/04/17 08:26:03;;;;;;;2.10;1.02;;;;;;;;;;6322705;22;20019;-84
2024/04/17 08:28:30;;;;;;;0.98;0.55;;;;;;;;;;6323792;22;20000;-83
2024/04/17 08:30:58;;;;;;;1.98;0.60;;;;;;;;;;6322586;22;20019;-83
2024/04/17 08:33:32;;;;;;;1.75;0.70;;;;;;;;;;6324001;22;20019;-83
2024/04/17 08:35:59;;;;;;;;;;;;;;;;;;6323881;22;20015;-83
2024/04/17 08:38:33;;;;;;;0.77;0.60;;;;;;;;;;6282955;22;19924;-83
2024/04/17 08:41:04;;;;;;;3.03;0.85;;;;;;;;;;6323012;22;20032;-83
2024/04/17 08:43:33;;;;;;;0.95;0.82;;;;;;;;;;6323173;22;20000;-83
2024/04/17 08:46:07;;;;;;;0.82;0.57;;;;;;;;;;6323237;22;20011;-82
2024/04/17 08:48:34;;;;;;;0.85;0.50;;;;;;;;;;6320686;22;20014;-83
2024/04/17 08:51:12;;;;;;;0.93;0.60;;;;;;;;;;6323895;22;20015;-83
2024/04/17 08:53:40;;;;;;;2.08;0.70;;;;;;;;;;6320647;22;20012;-83
2024/04/17 08:56:22;;;;;;;3.20;0.60;;;;;;;;;;6321396;22;20004;-83
2024/04/17 08:58:51;;;;;;;1.38;0.75;;;;;;;;;;6323171;22;20012;-82
2024/04/17 09:01:28;;;;;;;2.30;1.20;;;;;;;;;;6321184;22;20019;-83
2024/04/17 09:03:56;;;;;;;1.25;0.70;;;;;;;;;;6323636;22;20011;-83
2024/04/17 09:06:23;;;;;;;;;;;;;;;;;;6325123;22;20012;-83
2024/04/17 09:08:57;;;;;;;1.92;0.80;;;;;;;;;;6323941;22;19936;-83
2024/04/17 09:11:31;;;;;;;1.98;0.75;;;;;;;;;;6319922;22;20081;-84
2024/04/17 09:14:05;;;;;;;3.15;0.75;;;;;;;;;;6322407;22;19996;-85
2024/04/17 09:16:39;;;;;;;0.77;0.40;;;;;;;;;;6323918;22;20016;-83
2024/04/17 09:19:06;;;;;;;;;;;;;;;;;;6325084;22;20057;-83
2024/04/17 09:21:40;;;;;;;1.35;0.60;;;;;;;;;;6323172;22;19924;-84
2024/04/17 09:24:07;;;;;;;;;;;;;;;;;;6323972;22;20000;-83
2024/04/17 09:26:41;;;;;;;0.98;0.73;;;;;;;;;;6283831;22;19952;-84
2024/04/17 09:29:08;;;;;;;1.42;0.50;;;;;;;;;;6323097;22;20453;-84
2024/04/17 09:31:36;;;;;;;0.57;0.45;;;;;;;;;;6323858;22;20003;-83
2024/04/17 09:34:12;;;;;;;0.80;0.60;;;;;;;;;;6323321;22;20039;-84
2024/04/17 09:36:47;;;;;;;0.93;0.43;;;;;;;;;;6321963;22;20012;-84
2024/04/17 09:39:21;;;;;;;0.82;0.50;;;;;;;;;;6321128;22;20414;-84
2024/04/17 09:41:50;;;;;;;0.43;0.40;;;;;;;;;;6321176;22;20057;-83
2024/04/17 09:44:18;;;;;;;1.52;0.70;;;;;;;;;;6322574;22;20087;-84
2024/04/17 09:46:56;;;;;;;1.27;0.50;;;;;;;;;;6322432;22;20008;-84
2024/04/17 09:49:26;;;;;;;0.68;0.50;;;;;;;;;;6323481;22;20082;-84
2024/04/17 09:52:02;;;;;;;2.30;0.50;;;;;;;;;;6321115;22;20004;-84
2024/04/17 09:54:30;;;;;;;0.85;0.47;;;;;;;;;;6323959;22;20004;-84
2024/04/17 09:56:57;;;;;;;;;;;;;;;;;;6320898;22;20016;-84
2024/04/17 09:59:38;;;;;;;0.70;0.50;;;;;;;;;;6323925;22;20392;-84
2024/04/17 10:02:08;;;;;;;0.47;0.43;;;;;;;;;;6326837;22;20052;-84
2024/04/17 10:04:42;;;;;;;0.32;0.30;;;;;;;;;;6326551;22;20003;-85
2024/04/17 10:07:11;;;;;;;0.50;0.40;;;;;;;;;;6326303;22;20016;-83
2024/04/17 10:09:46;;;;;;;0.80;0.50;;;;;;;;;;6334091;22;20016;-84
2024/04/17 10:12:20;;;;;;;0.65;0.40;;;;;;;;;;6328503;22;20386;-84
2024/04/17 10:15:01;;;;;;;0.68;0.40;;;;;;;;;;6327062;22;20000;-84
2024/04/17 10:17:35;;;;;;;0.77;0.50;;;;;;;;;;6326276;22;20079;-84
2024/04/17 10:20:03;;;;;;;0.70;0.38;;;;;;;;;;6325103;22;20015;-85
2024/04/17 10:22:38;;;;;;;0.68;0.50;;;;;;;;;;6325398;22;20080;-85
2024/04/17 10:25:06;;;;;;;1.13;0.30;;;;;;;;;;6326520;22;20441;-84
2024/04/17 10:27:53;;;;;;;3.00;0.43;;;;;;;;;;6325535;22;20488;-84
2024/04/17 10:30:20;;;;;;;;;;;;;;;;;;6325962;22;20031;-85
2024/04/17 10:32:54;;;;;;;1.02;0.40;;;;;;;;;;6325209;22;19936;-84
2024/04/17 10:35:27;;;;;;;0.85;0.38;;;;;;;;;;6324431;22;20275;-84
2024/04/17 10:38:07;;;;;;;0.90;0.50;;;;;;;;;;6324635;22;20396;-85
2024/04/17 10:40:56;;;;;;;0.93;0.60;;;;;;;;;;6324817;22;20224;-84
2024/04/17 10:43:34;;;;;;;0.40;0.38;;;;;;;;;;6323993;22;20386;-84
2024/04/17 10:46:06;;;;;;;1.35;0.50;;;;;;;;;;6325041;22;20028;-84
2024/04/17 10:48:47;;;;;;;2.60;0.60;;;;;;;;;;6324188;22;20011;-85
2024/04/17 10:51:21;;;;;;;0.85;0.60;;;;;;;;;;6324163;22;20008;-85
2024/04/17 10:53:49;;;;;;;1.70;0.77;;;;;;;;;;6322412;22;19999;-85
2024/04/17 10:56:23;;;;;;;1.80;0.60;;;;;;;;;;6324481;22;20145;-84
2024/04/17 10:59:03;;;;;;;2.03;0.60;;;;;;;;;;6323315;22;20025;-84
2024/04/17 11:01:37;;;;;;;2.10;0.60;;;;;;;;;;6323016;22;20004;-84
2024/04/17 11:04:05;;;;;;;1.27;0.50;;;;;;;;;;6325185;22;20004;-84
2024/04/17 11:06:33;;;;;;;0.88;0.55;;;;;;;;;;6324954;22;20004;-85
2024/04/17 11:09:07;;;;;;;0.63;0.50;;;;;;;;;;6323975;22;20056;-84
2024/04/17 11:11:50;;;;;;;0.77;0.70;;;;;;;;;;6312564;22;20032;-84
2024/04/17 11:14:31;;;;;;;3.45;0.77;;;;;;;;;;6313715;22;20005;-84
2024/04/17 11:16:58;;;;;;;2.05;0.63;;;;;;;;;;6277073;22;20078;-84
2024/04/17 11:19:32;;;;;;;1.05;0.70;;;;;;;;;;6313446;22;20004;-84
2024/04/17 11:22:07;;;;;;;0.35;0.30;;;;;;;;;;6276033;22;19997;-85
2024/04/17 11:24:45;;;;;;;2.47;0.40;;;;;;;;;;6312137;22;20005;-84
2024/04/17 11:27:15;;;;;;;1.00;0.60;;;;;;;;;;6314963;22;20076;-84
2024/04/17 11:29:49;;;;;;;0.50;0.50;;;;;;;;;;6276118;22;20386;-84
2024/04/17 11:32:17;;;;;;;;;;;;;;;;;;6277016;22;20001;-85
2024/04/17 11:34:45;;;;;;;0.90;0.50;;;;;;;;;;6276288;22;20320;-85
2024/04/17 11:37:19;;;;;;;0.52;0.35;;;;;;;;;;6312600;22;20000;-84
2024/04/17 11:39:47;;;;;;;1.08;0.70;;;;;;;;;;6277012;22;20023;-85
2024/04/17 11:42:21;;;;;;;0.30;0.30;;;;;;;;;;6311209;22;20097;-84
2024/04/17 11:44:49;;;;;;;0.68;0.43;;;;;;;;;;6313229;22;20050;-85
2024/04/17 11:47:28;;;;;;;0.40;0.38;;;;;;;;;;6312976;22;20017;-85
2024/04/17 11:50:01;;;;;;;0.93;0.55;;;;;;;;;;6311730;22;20004;-86
2024/04/17 11:52:29;;;;;;;1.40;0.90;;;;;;;;;;6315552;22;20213;-86
2024/04/17 11:55:03;;;;;;;0.28;0.20;;;;;;;;;;6313397;22;20011;-86
2024/04/17 11:57:31;;;;;;;0.82;0.68;;;;;;;;;;6276812;22;20457;-86
2024/04/17 12:00:12;;;;;;;1.02;0.65;;;;;;;;;;6275841;22;20454;-85
2024/04/17 12:02:39;;;;;;;0.68;0.50;;;;;;;;;;6275887;22;20084;-84
2024/04/17 12:05:13;;;;;;;0.40;0.40;;;;;;;;;;6274993;22;20000;-85
2024/04/17 12:07:44;;;;;;;1.20;0.70;;;;;;;;;;6313405;22;20040;-85
2024/04/17 12:10:11;;;;;;;1.08;0.52;;;;;;;;;;6313687;22;20036;-84
2024/04/17 12:12:53;;;;;;;1.02;0.45;;;;;;;;;;6317375;22;20011;-85
2024/04/17 12:15:20;;;;;;;1.23;0.70;;;;;;;;;;6321352;22;20031;-85
2024/04/17 12:17:54;;;;;;;0.90;0.50;;;;;;;;;;6322797;22;20008;-85
2024/04/17 12:20:22;;;;;;;1.42;0.80;;;;;;;;;;6323267;22;20436;-84
2024/04/17 12:22:49;;;;;;;0.85;0.52;;;;;;;;;;6323006;22;20015;-85
2024/04/17 12:28:09;;;;;;;0.52;0.50;;;;;;;;;;6323261;22;20000;-84
2024/04/17 12:30:43;;;;;;;0.65;0.60;;;;;;;;;;6324893;22;20015;-85
2024/04/17 12:33:10;;;;;;;1.33;0.68;;;;;;;;;;6324280;22;20021;-84
2024/04/17 12:35:38;;;;;;;1.00;0.70;;;;;;;;;;6322541;22;20055;-84
2024/04/17 12:38:12;;;;;;;1.65;0.60;;;;;;;;;;6323672;22;20310;-85
2024/04/17 12:40:40;;;;;;;1.02;0.70;;;;;;;;;;6324106;22;20003;-85
2024/04/17 12:43:16;;;;;;;1.13;0.55;;;;;;;;;;6326206;22;20044;-84
2024/04/17 12:45:44;;;;;;;0.73;0.40;;;;;;;;;;6324415;22;20473;-84
2024/04/17 12:48:11;;;;;;;0.65;0.50;;;;;;;;;;6323061;22;20000;-84
2024/04/17 12:50:48;;;;;;;0.55;0.35;;;;;;;;;;6323132;22;20015;-84
2024/04/17 12:53:17;;;;;;;1.35;0.90;;;;;;;;;;6324136;22;20027;-84
2024/04/17 12:55:55;;;;;;;0.68;0.43;;;;;;;;;;6325170;22;20522;-84
2024/04/17 12:58:23;;;;;;;0.90;0.50;;;;;;;;;;6322296;22;20016;-85
2024/04/17 13:00:57;;;;;;;1.88;0.75;;;;;;;;;;6321887;22;20004;-85
2024/04/17 13:03:33;;;;;;;1.55;0.70;;;;;;;;;;6322761;22;20000;-85
2024/04/17 13:06:05;;;;;;;0.80;0.60;;;;;;;;;;6321228;22;20359;-85
2024/04/17 13:08:39;;;;;;;0.60;0.52;;;;;;;;;;6324012;22;20049;-84
2024/04/17 13:11:13;;;;;;;1.52;0.90;;;;;;;;;;6322081;22;20023;-84
2024/04/17 13:13:57;;;;;;;1.33;0.70;;;;;;;;;;6322870;22;20004;-84
2024/04/17 13:16:24;;;;;;;2.05;0.65;;;;;;;;;;6321048;22;20084;-84
2024/04/17 13:19:00;;;;;;;1.02;0.55;;;;;;;;;;6323674;22;20004;-84
2024/04/17 13:21:28;;;;;;;;;;;;;;;;;;6322188;22;20007;-84
2024/04/17 13:23:56;;;;;;;3.25;0.80;;;;;;;;;;6322368;22;19952;-84
2024/04/17 13:26:29;;;;;;;5.78;1.10;;;;;;;;;;6323455;22;20089;-84
2024/04/17 13:28:57;;;;;;;2.28;0.82;;;;;;;;;;6323518;22;20426;-85
2024/04/17 13:31:31;;;;;;;1.98;0.85;;;;;;;;;;6323776;22;20016;-84
2024/04/17 13:33:59;;;;;;;;;;;;;;;;;;6324530;22;20075;-84
2024/04/17 13:36:26;;;;;;;1.00;0.80;;;;;;;;;;6282476;22;19924;-84
2024/04/17 13:39:00;;;;;;;1.98;0.80;;;;;;;;;;6325927;22;20018;-84
2024/04/17 13:41:27;;;;;;;3.38;1.55;;;;;;;;;;6324577;22;20544;-84
2024/04/17 13:43:55;;;;;;;4.03;0.80;;;;;;;;;;6323314;22;20303;-84
2024/04/17 13:46:29;;;;;;;5.05;1.20;;;;;;;;;;6325815;22;20012;-84
2024/04/17 13:49:04;;;;;;;2.90;0.88;;;;;;;;;;6323227;22;20315;-83
2024/04/17 13:51:37;;;;;;;3.90;0.82;;;;;;;;;;6325433;22;20016;-83
2024/04/17 13:54:05;;;;;;;2.15;1.00;;;;;;;;;;6323333;22;20028;-84
2024/04/17 13:56:32;;;;;;;1.17;0.80;;;;;;;;;;6324821;22;20481;-83
2024/04/17 13:59:06;;;;;;;2.38;1.20;;;;;;;;;;6325794;22;20008;-84
2024/04/17 14:01:33;;;;;;;;;;;;;;;;;;6323593;22;20018;-84
2024/04/17 14:04:14;;;;;;;1.63;0.80;;;;;;;;;;6325700;22;19942;-83
2024/04/17 14:06:41;;;;;;;3.13;1.00;;;;;;;;;;6324739;22;20049;-84
2024/04/17 14:09:15;;;;;;;1.25;0.80;;;;;;;;;;6325790;22;20015;-83
2024/04/17 14:11:49;;;;;;;1.40;1.00;;;;;;;;;;6322829;22;20019;-82
2024/04/17 14:14:24;;;;;;;3.83;0.95;;;;;;;;;;6326327;22;20079;-83
2024/04/17 14:16:53;;;;;;;0.90;0.90;;;;;;;;;;6326270;22;20053;-83
2024/04/17 14:19:20;;;;;;;1.33;0.90;;;;;;;;;;6327625;22;20004;-83
2024/04/17 14:21:55;;;;;;;1.90;0.88;;;;;;;;;;6324125;22;20028;-83
2024/04/17 14:24:22;;;;;;;1.52;1.00;;;;;;;;;;6323110;22;20011;-83
2024/04/17 14:26:56;;;;;;;0.95;0.70;;;;;;;;;;6323156;22;20023;-83
2024/04/17 14:29:23;;;;;;;2.97;1.08;;;;;;;;;;6324521;22;20086;-83
2024/04/17 14:31:51;;;;;;;2.67;1.00;;;;;;;;;;6324980;22;20056;-83
2024/04/17 14:34:25;;;;;;;0.95;0.50;;;;;;;;;;6323780;22;20015;-84
2024/04/17 14:36:52;;;;;;;1.70;1.08;;;;;;;;;;6323837;22;20008;-84
2024/04/17 14:39:29;;;;;;;1.95;1.05;;;;;;;;;;6321588;22;20000;-84
2024/04/17 14:41:57;;;;;;;1.15;0.90;;;;;;;;;;6323903;22;20019;-84
2024/04/17 14:44:24;;;;;;;1.58;0.88;;;;;;;;;;6324146;22;20080;-84
2024/04/17 14:46:59;;;;;;;2.22;0.77;;;;;;;;;;6323226;22;19996;-83
2024/04/17 14:49:26;;;;;;;1.98;0.88;;;;;;;;;;6322122;22;20065;-83
2024/04/17 14:52:01;;;;;;;0.65;0.65;;;;;;;;;;6322628;22;20023;-83
2024/04/17 14:54:28;;;;;;;0.98;0.80;;;;;;;;;;6324166;22;20558;-83
2024/04/17 14:56:56;;;;;;;;;;;;;;;;;;6324771;22;20011;-83
2024/04/17 14:59:30;;;;;;;1.10;0.70;;;;;;;;;;6325284;22;20277;-83
2024/04/17 15:01:58;;;;;;;1.35;0.73;;;;;;;;;;6325222;22;20080;-83
2024/04/17 15:04:38;;;;;;;0.70;0.65;;;;;;;;;;6325628;22;20390;-83
2024/04/17 15:07:05;;;;;;;0.93;0.60;;;;;;;;;;6322848;22;20000;-83
2024/04/17 15:09:39;;;;;;;1.40;0.80;;;;;;;;;;6325553;22;20048;-83
2024/04/17 15:12:20;;;;;;;0.63;0.63;;;;;;;;;;6321540;22;20000;-83
2024/04/17 15:14:54;;;;;;;1.70;1.20;;;;;;;;;;6323725;22;20004;-83
2024/04/17 15:17:21;;;;;;;1.23;0.98;;;;;;;;;;6323067;22;20057;-83
2024/04/17 15:19:49;;;;;;;1.55;1.00;;;;;;;;;;6323713;22;20659;-83